createdAt,value
2017-06-26T00:00:37.403Z,1.53
2017-06-26T00:03:03.773Z,2.43
2017-06-26T00:05:30.881Z,1.63
2017-06-26T00:07:58.005Z,2.43
2017-06-26T00:10:24.397Z,1.80
2017-06-26T00:12:50.815Z,2.47
2017-06-26T00:15:17.185Z,2.10
2017-06-26T00:17:43.573Z,1.93
2017-06-26T00:20:10.046Z,1.97
2017-06-26T00:22:36.462Z,1.90
2017-06-26T00:25:02.856Z,3.20
2017-06-26T00:27:29.240Z,4.10
2017-06-26T00:29:56.103Z,3.37
2017-06-26T00:32:22.545Z,2.73
2017-06-26T00:34:48.950Z,3.20
2017-06-26T00:37:15.346Z,1.80
2017-06-26T00:39:42.435Z,2.00
2017-06-26T00:42:08.835Z,3.50
2017-06-26T00:44:35.229Z,2.30
2017-06-26T00:47:01.598Z,5.43
2017-06-26T00:49:28.004Z,2.53
2017-06-26T00:51:55.811Z,2.00
2017-06-26T00:54:22.248Z,2.37
2017-06-26T00:56:48.626Z,3.33
2017-06-26T00:59:15.113Z,3.00
2017-06-26T01:01:41.490Z,1.87
2017-06-26T01:04:07.955Z,2.60
2017-06-26T01:06:34.354Z,2.90
2017-06-26T01:09:00.768Z,4.20
2017-06-26T01:11:27.163Z,3.00
2017-06-26T01:13:53.556Z,3.67
2017-06-26T01:16:20.837Z,2.60
2017-06-26T01:18:47.254Z,5.63
2017-06-26T01:21:13.674Z,2.83
2017-06-26T01:23:40.066Z,4.63
2017-06-26T01:26:06.454Z,2.53
2017-06-26T01:28:32.843Z,3.40
2017-06-26T01:30:59.754Z,3.70
2017-06-26T01:33:26.177Z,3.50
2017-06-26T01:35:52.630Z,3.30
2017-06-26T01:38:19.086Z,4.77
2017-06-26T01:40:45.603Z,4.10
2017-06-26T01:43:12.034Z,3.93
2017-06-26T01:45:38.465Z,4.50
2017-06-26T01:48:04.854Z,3.80
2017-06-26T01:50:31.311Z,3.70
2017-06-26T01:52:57.769Z,6.10
2017-06-26T01:55:24.251Z,3.67
2017-06-26T01:57:50.628Z,3.60
2017-06-26T02:00:17.194Z,4.17
2017-06-26T02:02:43.600Z,7.30
2017-06-26T02:05:10.007Z,4.23
2017-06-26T02:07:36.427Z,5.80
2017-06-26T02:10:02.822Z,4.50
2017-06-26T02:12:29.185Z,4.03
2017-06-26T02:14:55.620Z,5.10
2017-06-26T02:17:22.026Z,5.33
2017-06-26T02:19:49.205Z,4.53
2017-06-26T02:22:17.289Z,4.23
2017-06-26T02:24:43.675Z,6.00
2017-06-26T02:27:10.057Z,4.33
2017-06-26T02:29:36.433Z,4.70
2017-06-26T02:32:02.835Z,4.30
2017-06-26T02:34:29.188Z,5.10
2017-06-26T02:36:56.420Z,4.60
2017-06-26T02:39:22.998Z,4.13
2017-06-26T02:41:49.369Z,4.33
2017-06-26T02:44:15.822Z,4.00
2017-06-26T02:46:42.212Z,4.13
2017-06-26T02:49:08.584Z,9.33
2017-06-26T02:51:34.946Z,5.47
2017-06-26T02:54:01.309Z,4.60
2017-06-26T02:56:27.686Z,4.97
2017-06-26T02:58:54.786Z,4.77
2017-06-26T03:01:21.221Z,9.17
2017-06-26T03:03:48.357Z,4.67
2017-06-26T03:06:14.798Z,7.23
2017-06-26T03:08:41.157Z,6.30
2017-06-26T03:11:07.570Z,8.10
2017-06-26T03:13:33.965Z,5.30
2017-06-26T03:16:00.333Z,8.70
2017-06-26T03:18:26.693Z,7.80
2017-06-26T03:20:53.211Z,7.37
2017-06-26T03:23:19.606Z,7.10
2017-06-26T03:25:46.741Z,6.33
2017-06-26T03:28:13.125Z,6.27
2017-06-26T03:30:39.541Z,6.27
2017-06-26T03:33:05.955Z,7.97
2017-06-26T03:35:32.352Z,7.10
2017-06-26T03:37:59.553Z,7.93
2017-06-26T03:40:25.889Z,6.73
2017-06-26T03:42:52.302Z,7.10
2017-06-26T03:45:18.674Z,7.37
2017-06-26T03:50:18.205Z,7.20
2017-06-26T03:52:44.550Z,6.50
2017-06-26T03:55:10.901Z,6.37
2017-06-26T03:57:37.333Z,7.77
2017-06-26T04:00:03.912Z,6.77
2017-06-26T04:02:30.301Z,6.93
2017-06-26T04:04:56.777Z,5.63
2017-06-26T04:07:23.125Z,5.77
2017-06-26T04:09:49.503Z,6.10
2017-06-26T04:12:16.678Z,6.57
2017-06-26T04:14:43.081Z,9.80
2017-06-26T04:17:09.569Z,6.30
2017-06-26T04:19:35.970Z,6.80
2017-06-26T04:22:02.374Z,9.00
2017-06-26T04:24:29.128Z,7.67
2017-06-26T04:26:55.514Z,6.63
2017-06-26T04:29:21.898Z,11.03
2017-06-26T04:31:48.324Z,5.80
2017-06-26T04:34:14.749Z,7.10
2017-06-26T04:36:41.127Z,6.90
2017-06-26T04:39:07.507Z,8.80
2017-06-26T04:41:33.910Z,7.20
2017-06-26T04:44:00.866Z,7.20
2017-06-26T04:46:27.261Z,7.70
2017-06-26T04:48:53.641Z,9.10
2017-06-26T04:51:20.074Z,7.97
2017-06-26T04:53:46.501Z,9.10
2017-06-26T04:56:12.900Z,9.93
2017-06-26T04:58:39.451Z,11.20
2017-06-26T05:01:05.837Z,12.47
2017-06-26T05:03:32.835Z,15.20
2017-06-26T05:05:59.985Z,10.77
2017-06-26T05:08:26.433Z,10.73
2017-06-26T05:10:52.864Z,9.03
2017-06-26T05:13:19.230Z,9.33
2017-06-26T05:15:45.582Z,9.43
2017-06-26T05:18:12.062Z,10.00
2017-06-26T05:20:38.459Z,11.53
2017-06-26T05:23:04.851Z,11.17
2017-06-26T05:25:31.256Z,9.77
2017-06-26T05:27:57.685Z,11.87
2017-06-26T05:30:24.080Z,9.70
2017-06-26T05:32:50.527Z,9.57
2017-06-26T05:35:16.922Z,10.23
2017-06-26T05:37:43.348Z,8.60
2017-06-26T05:40:09.822Z,9.43
2017-06-26T05:42:36.974Z,9.83
2017-06-26T05:45:03.376Z,11.20
2017-06-26T05:47:29.774Z,14.60
2017-06-26T05:49:56.957Z,10.50
2017-06-26T05:52:23.346Z,8.77
2017-06-26T05:54:49.725Z,11.07
2017-06-26T05:57:16.165Z,12.80
2017-06-26T05:59:42.546Z,10.50
2017-06-26T06:02:09.023Z,10.70
2017-06-26T06:04:35.453Z,11.70
2017-06-26T06:07:01.842Z,11.33
2017-06-26T06:09:28.234Z,12.03
2017-06-26T06:11:54.630Z,15.20
2017-06-26T06:14:21.026Z,14.70
2017-06-26T06:16:47.437Z,15.33
2017-06-26T06:19:13.805Z,20.17
2017-06-26T06:21:40.166Z,19.83
2017-06-26T06:24:06.534Z,19.47
2017-06-26T06:26:32.928Z,19.90
2017-06-26T06:28:59.327Z,18.93
2017-06-26T06:31:26.605Z,17.13
2017-06-26T06:33:59.917Z,20.87
2017-06-26T06:36:26.315Z,22.83
2017-06-26T06:38:52.845Z,24.03
2017-06-26T06:41:19.265Z,25.57
2017-06-26T06:43:46.416Z,26.07
2017-06-26T06:46:12.819Z,28.40
2017-06-26T06:48:39.238Z,26.73
2017-06-26T06:51:05.682Z,24.50
2017-06-26T06:53:32.714Z,25.47
2017-06-26T06:55:59.152Z,30.63
2017-06-26T06:58:25.609Z,26.67
2017-06-26T07:00:52.030Z,32.60
2017-06-26T07:03:18.481Z,29.43
2017-06-26T07:05:45.021Z,30.97
2017-06-26T07:08:12.288Z,29.87
2017-06-26T07:10:38.693Z,35.30
2017-06-26T07:13:05.077Z,26.37
2017-06-26T07:15:31.457Z,29.23
2017-06-26T07:17:58.581Z,23.37
2017-06-26T07:20:25.042Z,28.10
2017-06-26T07:22:51.411Z,25.90
2017-06-26T07:25:17.854Z,29.80
2017-06-26T07:27:44.219Z,28.00
2017-06-26T07:30:10.667Z,28.27
2017-06-26T07:32:38.063Z,27.17
2017-06-26T07:35:04.456Z,27.23
2017-06-26T07:37:31.861Z,24.00
2017-06-26T07:39:58.278Z,25.83
2017-06-26T07:42:24.679Z,23.53
2017-06-26T07:44:51.125Z,24.33
2017-06-26T07:47:18.269Z,23.10
2017-06-26T07:49:45.390Z,21.33
2017-06-26T07:52:16.357Z,23.57
2017-06-26T07:54:42.754Z,22.17
2017-06-26T07:57:09.150Z,24.07
2017-06-26T07:59:50.406Z,26.10
2017-06-26T08:02:16.896Z,23.60
2017-06-26T08:04:43.325Z,27.37
2017-06-26T08:07:18.555Z,24.80
2017-06-26T08:09:47.077Z,26.00
2017-06-26T08:12:13.505Z,21.33
2017-06-26T08:14:39.906Z,23.23
2017-06-26T08:17:06.315Z,21.60
2017-06-26T08:19:32.759Z,19.23
2017-06-26T08:21:59.168Z,20.30
2017-06-26T08:24:25.569Z,18.43
2017-06-26T08:26:51.954Z,17.83
2017-06-26T08:29:18.369Z,16.27
2017-06-26T08:31:44.843Z,16.03
2017-06-26T08:34:11.290Z,15.93
2017-06-26T08:36:37.706Z,16.00
2017-06-26T08:39:04.154Z,15.03
2017-06-26T08:41:30.560Z,14.03
2017-06-26T08:43:56.943Z,14.97
2017-06-26T08:46:23.298Z,14.43
2017-06-26T08:48:49.671Z,16.27
2017-06-26T08:51:16.078Z,16.60
2017-06-26T08:53:42.505Z,16.43
2017-06-26T08:56:08.895Z,18.33
2017-06-26T08:58:35.314Z,16.23
2017-06-26T09:01:05.701Z,14.87
2017-06-26T09:03:32.143Z,15.17
2017-06-26T09:05:58.707Z,14.90
2017-06-26T09:08:25.895Z,14.10
2017-06-26T09:10:52.341Z,13.80
2017-06-26T09:13:18.723Z,12.90
2017-06-26T09:15:52.409Z,10.60
2017-06-26T09:18:19.219Z,9.87
2017-06-26T09:20:45.618Z,8.43
2017-06-26T09:23:11.989Z,6.47
2017-06-26T09:25:45.152Z,6.07
2017-06-26T09:28:11.513Z,7.20
2017-06-26T09:30:37.946Z,8.10
2017-06-26T09:33:05.085Z,10.70
2017-06-26T09:35:31.503Z,7.30
2017-06-26T09:37:57.893Z,5.97
2017-06-26T09:40:26.320Z,6.33
2017-06-26T09:42:52.714Z,6.20
2017-06-26T09:45:22.603Z,5.87
2017-06-26T09:47:48.986Z,6.47
2017-06-26T09:50:15.413Z,5.50
2017-06-26T09:52:42.591Z,5.07
2017-06-26T09:55:09.010Z,4.30
2017-06-26T09:57:35.485Z,5.37
2017-06-26T10:00:02.670Z,5.53
2017-06-26T10:02:29.054Z,4.23
2017-06-26T10:04:58.482Z,4.57
2017-06-26T10:07:26.304Z,4.40
2017-06-26T10:09:52.681Z,4.30
2017-06-26T10:12:19.093Z,4.93
2017-06-26T10:14:45.491Z,3.50
2017-06-26T10:17:11.885Z,4.30
2017-06-26T10:19:38.299Z,4.03
2017-06-26T10:22:04.674Z,2.70
2017-06-26T10:24:31.065Z,4.13
2017-06-26T10:26:57.462Z,3.43
2017-06-26T10:29:23.864Z,3.57
2017-06-26T10:31:50.260Z,2.67
2017-06-26T10:34:16.636Z,7.70
2017-06-26T10:36:43.061Z,2.57
2017-06-26T10:39:09.529Z,2.47
2017-06-26T10:41:36.001Z,2.33
2017-06-26T10:44:02.490Z,2.80
2017-06-26T10:46:28.929Z,2.37
2017-06-26T10:48:55.317Z,3.87
2017-06-26T10:51:21.707Z,3.90
2017-06-26T10:53:48.068Z,2.53
2017-06-26T10:56:14.495Z,2.17
2017-06-26T10:58:46.898Z,2.80
2017-06-26T11:01:13.373Z,3.13
2017-06-26T11:03:39.809Z,4.20
2017-06-26T11:06:06.189Z,3.50
2017-06-26T11:08:32.573Z,3.33
2017-06-26T11:10:59.008Z,2.47
2017-06-26T11:13:25.388Z,5.90
2017-06-26T11:15:57.614Z,4.20
2017-06-26T11:18:24.114Z,4.13
2017-06-26T11:20:50.487Z,3.73
2017-06-26T11:23:16.918Z,2.73
2017-06-26T11:25:43.308Z,3.27
2017-06-26T11:28:10.469Z,4.43
2017-06-26T11:30:36.841Z,4.30
2017-06-26T11:33:03.249Z,3.17
2017-06-26T11:35:29.621Z,2.33
2017-06-26T11:37:56.049Z,2.33
2017-06-26T11:40:22.410Z,2.30
2017-06-26T11:42:48.810Z,3.53
2017-06-26T11:45:15.735Z,7.20
2017-06-26T11:47:42.193Z,2.97
2017-06-26T11:50:09.665Z,2.63
2017-06-26T11:52:36.202Z,4.80
2017-06-26T11:55:02.619Z,4.17
2017-06-26T11:57:29.720Z,4.43
2017-06-26T11:59:56.880Z,2.80
2017-06-26T12:02:23.261Z,3.53
2017-06-26T12:04:49.693Z,2.63
2017-06-26T12:07:16.098Z,2.37
2017-06-26T12:09:42.544Z,2.20
2017-06-26T12:12:08.993Z,3.70
2017-06-26T12:14:35.395Z,2.60
2017-06-26T12:17:01.818Z,4.40
2017-06-26T12:19:28.181Z,4.80
2017-06-26T12:21:55.361Z,3.63
2017-06-26T12:24:23.142Z,4.73
2017-06-26T12:26:49.621Z,3.90
2017-06-26T12:29:16.044Z,3.60
2017-06-26T12:31:42.494Z,5.37
2017-06-26T12:34:08.865Z,2.07
2017-06-26T12:36:35.433Z,4.50
2017-06-26T12:39:01.817Z,2.33
2017-06-26T12:41:28.245Z,3.43
2017-06-26T12:43:54.678Z,4.30
2017-06-26T12:46:21.165Z,4.17
2017-06-26T12:48:47.821Z,4.23
2017-06-26T12:51:14.281Z,2.40
2017-06-26T12:53:40.827Z,3.13
2017-06-26T12:56:07.289Z,2.63
2017-06-26T12:58:33.855Z,11.60
2017-06-26T13:01:00.439Z,5.53
2017-06-26T13:03:26.937Z,2.23
2017-06-26T13:05:53.481Z,4.23
2017-06-26T13:08:20.069Z,1.67
2017-06-26T13:10:46.947Z,2.83
2017-06-26T13:13:13.401Z,4.03
2017-06-26T13:15:39.805Z,3.90
2017-06-26T13:18:06.971Z,2.37
2017-06-26T13:20:33.404Z,2.60
2017-06-26T13:23:01.020Z,2.97
2017-06-26T13:25:29.537Z,2.97
2017-06-26T13:27:55.958Z,2.47
2017-06-26T13:30:22.433Z,2.30
2017-06-26T13:32:48.941Z,1.90
2017-06-26T13:35:15.338Z,3.70
2017-06-26T13:37:43.510Z,2.20
2017-06-26T13:40:10.330Z,2.50
2017-06-26T13:42:36.778Z,2.57
2017-06-26T13:45:03.142Z,4.27
2017-06-26T13:47:29.619Z,2.70
2017-06-26T13:49:56.523Z,3.33
2017-06-26T13:52:22.912Z,3.43
2017-06-26T13:54:49.322Z,5.70
2017-06-26T13:57:16.289Z,2.00
2017-06-26T13:59:42.713Z,5.20
2017-06-26T14:02:09.336Z,4.87
2017-06-26T14:04:35.738Z,2.93
2017-06-26T14:07:02.170Z,5.57
2017-06-26T14:09:28.566Z,4.87
2017-06-26T14:11:54.950Z,4.83
2017-06-26T14:14:21.316Z,2.30
2017-06-26T14:16:47.757Z,3.83
2017-06-26T14:19:14.205Z,3.27
2017-06-26T14:21:42.259Z,6.30
2017-06-26T14:24:09.418Z,11.43
2017-06-26T14:26:35.818Z,4.07
2017-06-26T14:29:02.990Z,5.10
2017-06-26T14:31:29.392Z,6.90
2017-06-26T14:33:55.768Z,3.83
2017-06-26T14:36:22.167Z,2.67
2017-06-26T14:38:48.575Z,6.57
2017-06-26T14:41:14.957Z,5.60
2017-06-26T14:43:41.410Z,2.40
2017-06-26T14:46:07.793Z,5.27
2017-06-26T14:48:34.178Z,3.27
2017-06-26T14:51:00.657Z,4.30
2017-06-26T14:53:27.037Z,4.90
2017-06-26T14:55:53.521Z,4.60
2017-06-26T14:58:20.712Z,8.73
2017-06-26T15:00:47.263Z,6.03
2017-06-26T15:03:13.746Z,3.70
2017-06-26T15:05:40.193Z,2.27
2017-06-26T15:08:06.845Z,3.77
2017-06-26T15:10:34.091Z,6.07
2017-06-26T15:13:00.776Z,4.07
2017-06-26T15:15:27.182Z,2.80
2017-06-26T15:17:53.689Z,4.83
2017-06-26T15:20:20.270Z,3.47
2017-06-26T15:22:46.914Z,2.70
2017-06-26T15:25:13.318Z,3.43
2017-06-26T15:27:42.170Z,5.00
2017-06-26T15:30:09.313Z,4.67
2017-06-26T15:32:35.941Z,5.03
2017-06-26T15:35:03.078Z,3.53
2017-06-26T15:37:29.464Z,4.43
2017-06-26T15:39:55.965Z,4.47
2017-06-26T15:42:22.460Z,6.30
2017-06-26T15:44:49.010Z,6.17
2017-06-26T15:47:15.437Z,5.70
2017-06-26T15:49:42.775Z,5.03
2017-06-26T15:52:10.625Z,5.50
2017-06-26T15:54:37.061Z,3.20
2017-06-26T15:57:03.538Z,7.63
2017-06-26T15:59:29.933Z,7.63
2017-06-26T16:01:56.321Z,2.80
2017-06-26T16:04:22.693Z,3.03
2017-06-26T16:06:49.153Z,3.77
2017-06-26T16:09:16.287Z,3.00
2017-06-26T16:11:43.414Z,4.30
2017-06-26T16:14:14.425Z,5.27
2017-06-26T16:16:40.955Z,3.07
2017-06-26T16:19:07.368Z,2.97
2017-06-26T16:21:33.800Z,3.30
2017-06-26T16:24:00.189Z,2.40
2017-06-26T16:26:26.651Z,5.70
2017-06-26T16:28:53.051Z,5.10
2017-06-26T16:31:20.201Z,3.37
2017-06-26T16:33:47.319Z,3.47
2017-06-26T16:36:14.470Z,4.23
2017-06-26T16:38:40.914Z,5.40
2017-06-26T16:41:07.351Z,4.40
2017-06-26T16:43:33.774Z,2.70
2017-06-26T16:46:00.165Z,2.80
2017-06-26T16:48:26.606Z,3.50
2017-06-26T16:50:53.159Z,3.87
2017-06-26T16:53:19.757Z,8.13
2017-06-26T16:55:46.961Z,3.00
2017-06-26T16:58:13.349Z,5.33
2017-06-26T17:00:39.718Z,2.60
2017-06-26T17:03:06.111Z,3.40
2017-06-26T17:05:32.462Z,3.30
2017-06-26T17:07:58.862Z,4.80
2017-06-26T17:10:25.213Z,2.97
2017-06-26T17:12:51.680Z,5.43
2017-06-26T17:15:18.081Z,4.17
2017-06-26T17:17:44.442Z,3.17
2017-06-26T17:20:10.846Z,3.57
2017-06-26T17:22:37.253Z,3.20
2017-06-26T17:25:04.506Z,2.33
2017-06-26T17:27:31.010Z,3.17
2017-06-26T17:29:57.399Z,3.90
2017-06-26T17:32:23.818Z,1.93
2017-06-26T17:34:50.164Z,3.40
2017-06-26T17:37:16.561Z,2.63
2017-06-26T17:39:42.947Z,7.00
2017-06-26T17:42:10.089Z,3.90
2017-06-26T17:44:36.473Z,1.60
2017-06-26T17:47:02.854Z,1.97
2017-06-26T17:49:29.200Z,2.20
2017-06-26T17:51:55.577Z,3.50
2017-06-26T17:54:21.962Z,5.00
2017-06-26T17:56:49.116Z,6.00
2017-06-26T17:59:16.421Z,3.20
2017-06-26T18:01:42.941Z,5.27
2017-06-26T18:04:10.335Z,3.30
2017-06-26T18:06:36.711Z,5.10
2017-06-26T18:09:03.890Z,5.20
2017-06-26T18:11:30.294Z,5.33
2017-06-26T18:13:56.737Z,3.00
2017-06-26T18:16:23.153Z,4.13
2017-06-26T18:18:49.573Z,4.70
2017-06-26T18:21:16.038Z,3.30
2017-06-26T18:23:42.440Z,2.73
2017-06-26T18:26:08.817Z,3.53
2017-06-26T18:28:35.231Z,3.13
2017-06-26T18:31:01.762Z,8.40
2017-06-26T18:33:29.229Z,4.47
2017-06-26T18:35:55.634Z,2.97
2017-06-26T18:38:22.064Z,4.63
2017-06-26T18:40:48.571Z,2.97
2017-06-26T18:43:15.035Z,3.23
2017-06-26T18:45:41.432Z,4.23
2017-06-26T18:48:07.905Z,3.90
2017-06-26T18:50:39.456Z,1.47
2017-06-26T18:53:06.001Z,4.10
2017-06-26T18:55:32.431Z,3.00
2017-06-26T18:58:00.408Z,6.70
2017-06-26T19:00:26.929Z,3.23
2017-06-26T19:02:53.343Z,3.27
2017-06-26T19:05:19.725Z,7.70
2017-06-26T19:07:46.105Z,4.73
2017-06-26T19:10:12.492Z,5.13
2017-06-26T19:12:38.880Z,2.43
2017-06-26T19:15:05.321Z,3.50
2017-06-26T19:17:31.714Z,1.97
2017-06-26T19:19:58.095Z,3.13
2017-06-26T19:22:24.472Z,3.97
2017-06-26T19:24:50.846Z,5.13
2017-06-26T19:27:17.208Z,1.30
2017-06-26T19:29:43.593Z,5.80
2017-06-26T19:32:16.760Z,2.87
2017-06-26T19:34:43.433Z,2.63
2017-06-26T19:37:09.834Z,2.07
2017-06-26T19:39:36.242Z,1.93
2017-06-26T19:42:03.733Z,2.43
2017-06-26T19:44:35.574Z,3.57
2017-06-26T19:47:01.994Z,4.30
2017-06-26T19:49:28.397Z,2.30
2017-06-26T19:51:54.777Z,5.87
2017-06-26T19:54:21.880Z,3.83
2017-06-26T19:56:49.054Z,3.47
2017-06-26T19:59:19.378Z,3.97
2017-06-26T20:01:45.761Z,5.17
2017-06-26T20:04:12.935Z,4.33
2017-06-26T20:06:39.369Z,4.37
2017-06-26T20:09:05.767Z,2.77
2017-06-26T20:11:32.202Z,5.93
2017-06-26T20:14:02.951Z,4.87
2017-06-26T20:16:29.308Z,2.97
2017-06-26T20:18:55.714Z,2.27
2017-06-26T20:21:22.101Z,2.63
2017-06-26T20:23:49.239Z,1.60
2017-06-26T20:26:15.584Z,4.03
2017-06-26T20:28:45.990Z,6.40
2017-06-26T20:31:12.514Z,3.87
2017-06-26T20:33:39.120Z,3.30
2017-06-26T20:36:06.336Z,3.20
2017-06-26T20:38:32.861Z,5.50
2017-06-26T20:40:59.244Z,6.80
2017-06-26T20:43:29.001Z,5.17
2017-06-26T20:45:55.343Z,2.33
2017-06-26T20:48:21.711Z,3.00
2017-06-26T20:50:49.119Z,2.10
2017-06-26T20:53:15.521Z,3.10
2017-06-26T20:55:41.933Z,3.63
2017-06-26T20:58:08.301Z,4.03
2017-06-26T21:00:34.788Z,2.33
2017-06-26T21:03:01.200Z,6.90
2017-06-26T21:05:27.583Z,3.67
2017-06-26T21:07:53.965Z,4.43
2017-06-26T21:10:20.418Z,6.00
2017-06-26T21:12:46.843Z,2.50
2017-06-26T21:15:13.288Z,2.50
2017-06-26T21:17:39.673Z,5.60
2017-06-26T21:20:06.084Z,3.67
2017-06-26T21:22:32.470Z,2.70
2017-06-26T21:24:59.641Z,2.43
2017-06-26T21:27:26.065Z,2.40
2017-06-26T21:29:52.502Z,2.50
2017-06-26T21:32:18.905Z,3.63
2017-06-26T21:34:45.303Z,3.40
2017-06-26T21:37:11.689Z,3.50
2017-06-26T21:39:38.087Z,1.63
2017-06-26T21:42:04.463Z,5.63
2017-06-26T21:44:30.867Z,2.60
2017-06-26T21:46:57.231Z,3.50
2017-06-26T21:49:23.609Z,2.23
2017-06-26T21:51:50.067Z,2.90
2017-06-26T21:54:16.438Z,6.90
2017-06-26T21:56:42.834Z,1.80
2017-06-26T21:59:09.170Z,5.90
2017-06-26T22:01:35.639Z,2.90
2017-06-26T22:04:02.005Z,4.50
2017-06-26T22:06:28.408Z,2.93
2017-06-26T22:08:55.089Z,2.63
2017-06-26T22:11:21.463Z,3.53
2017-06-26T22:13:48.632Z,4.37
2017-06-26T22:16:15.013Z,2.57
2017-06-26T22:18:41.397Z,5.90
2017-06-26T22:21:08.578Z,2.83
2017-06-26T22:23:34.977Z,2.93
2017-06-26T22:26:01.529Z,3.63
2017-06-26T22:28:27.950Z,3.07
2017-06-26T22:30:54.347Z,5.47
2017-06-26T22:33:20.689Z,2.00
2017-06-26T22:35:47.077Z,6.13
2017-06-26T22:38:13.466Z,3.67
2017-06-26T22:40:39.902Z,5.00
2017-06-26T22:43:06.301Z,5.97
2017-06-26T22:45:32.653Z,4.23
2017-06-26T22:47:59.066Z,2.40
2017-06-26T22:50:25.477Z,2.67
2017-06-26T22:52:51.852Z,3.33
2017-06-26T22:55:18.201Z,3.23
2017-06-26T22:57:44.615Z,4.73
2017-06-26T23:00:11.005Z,5.50
2017-06-26T23:02:37.378Z,4.43
2017-06-26T23:05:03.778Z,3.57
2017-06-26T23:07:30.154Z,3.03
2017-06-26T23:09:56.484Z,6.73
2017-06-26T23:12:23.563Z,3.97
2017-06-26T23:14:49.929Z,5.07
2017-06-26T23:17:16.295Z,5.00
2017-06-26T23:19:42.701Z,7.27
2017-06-26T23:22:09.139Z,6.90
2017-06-26T23:24:35.775Z,4.70
2017-06-26T23:27:02.902Z,4.97
2017-06-26T23:29:29.305Z,5.47
2017-06-26T23:31:55.918Z,5.03
2017-06-26T23:34:22.316Z,2.97
2017-06-26T23:36:48.714Z,4.03
2017-06-26T23:39:15.103Z,5.73
2017-06-26T23:41:42.085Z,5.27
2017-06-26T23:44:08.675Z,5.63
2017-06-26T23:46:35.117Z,5.97
2017-06-26T23:49:01.647Z,8.53
2017-06-26T23:51:28.082Z,5.60
2017-06-26T23:53:54.490Z,2.87
2017-06-26T23:56:20.923Z,2.87
2017-06-26T23:58:47.334Z,6.73
